sensor_id;sensor_type;location;lat;lon;timestamp;temperature;humidity
5200;DHT22;2619;47.868;11.892;2022-08-21T00:01:26;16.40;99.90
5200;DHT22;2619;47.868;11.892;2022-08-21T00:03:53;16.40;99.90
5200;DHT22;2619;47.868;11.892;2022-08-21T00:06:20;16.50;99.90
5200;DHT22;2619;47.868;11.892;2022-08-21T00:08:46;16.40;99.90
5200;DHT22;2619;47.868;11.892;2022-08-21T00:11:12;16.40;99.90
5200;DHT22;2619;47.868;11.892;2022-08-21T00:13:38;16.40;99.90
5200;DHT22;2619;47.868;11.892;2022-08-21T00:16:04;16.40;99.90
5200;DHT22;2619;47.868;11.892;2022-08-21T00:18:30;16.40;99.90
5200;DHT22;2619;47.868;11.892;2022-08-21T00:20:56;16.40;99.90
5200;DHT22;2619;47.868;11.892;2022-08-21T00:23:22;16.30;99.90
5200;DHT22;2619;47.868;11.892;2022-08-21T00:25:48;16.20;99.90
5200;DHT22;2619;47.868;11.892;2022-08-21T00:28:14;16.10;99.90
5200;DHT22;2619;47.868;11.892;2022-08-21T00:30:40;16.10;99.90
5200;DHT22;2619;47.868;11.892;2022-08-21T00:33:07;16.10;99.90
5200;DHT22;2619;47.868;11.892;2022-08-21T00:35:36;16.10;99.90
5200;DHT22;2619;47.868;11.892;2022-08-21T00:38:03;16.00;99.90
5200;DHT22;2619;47.868;11.892;2022-08-21T00:40:33;16.00;99.90
5200;DHT22;2619;47.868;11.892;2022-08-21T00:43:02;16.00;99.90
5200;DHT22;2619;47.868;11.892;2022-08-21T00:45:29;15.90;99.90
5200;DHT22;2619;47.868;11.892;2022-08-21T00:47:55;15.90;99.90
5200;DHT22;2619;47.868;11.892;2022-08-21T00:50:22;15.80;99.90
5200;DHT22;2619;47.868;11.892;2022-08-21T00:52:50;15.80;99.90
5200;DHT22;2619;47.868;11.892;2022-08-21T00:55:18;15.80;99.90
5200;DHT22;2619;47.868;11.892;2022-08-21T00:57:50;15.70;99.90
5200;DHT22;2619;47.868;11.892;2022-08-21T01:00:20;15.70;99.90
5200;DHT22;2619;47.868;11.892;2022-08-21T01:02:46;15.70;99.90
5200;DHT22;2619;47.868;11.892;2022-08-21T01:05:13;15.70;99.90
5200;DHT22;2619;47.868;11.892;2022-08-21T01:07:40;15.60;99.90
5200;DHT22;2619;47.868;11.892;2022-08-21T01:10:06;15.60;99.90
5200;DHT22;2619;47.868;11.892;2022-08-21T01:12:33;15.60;99.90
5200;DHT22;2619;47.868;11.892;2022-08-21T01:15:01;15.60;99.90
5200;DHT22;2619;47.868;11.892;2022-08-21T01:17:28;15.60;99.90
5200;DHT22;2619;47.868;11.892;2022-08-21T01:19:58;15.50;99.90
5200;DHT22;2619;47.868;11.892;2022-08-21T01:22:23;15.50;99.90
5200;DHT22;2619;47.868;11.892;2022-08-21T01:24:49;15.50;99.90
5200;DHT22;2619;47.868;11.892;2022-08-21T01:27:15;15.50;99.90
5200;DHT22;2619;47.868;11.892;2022-08-21T01:29:59;15.40;99.90
5200;DHT22;2619;47.868;11.892;2022-08-21T01:32:27;15.30;99.90
5200;DHT22;2619;47.868;11.892;2022-08-21T01:34:53;15.30;99.90
5200;DHT22;2619;47.868;11.892;2022-08-21T01:37:20;15.40;99.90
5200;DHT22;2619;47.868;11.892;2022-08-21T01:39:46;15.30;99.90
5200;DHT22;2619;47.868;11.892;2022-08-21T01:42:13;15.40;99.90
5200;DHT22;2619;47.868;11.892;2022-08-21T01:44:39;15.30;99.90
5200;DHT22;2619;47.868;11.892;2022-08-21T01:47:07;15.30;99.90
5200;DHT22;2619;47.868;11.892;2022-08-21T01:49:35;15.30;99.90
5200;DHT22;2619;47.868;11.892;2022-08-21T01:52:02;15.20;99.90
5200;DHT22;2619;47.868;11.892;2022-08-21T01:54:29;15.20;99.90
5200;DHT22;2619;47.868;11.892;2022-08-21T01:56:55;15.30;99.90
5200;DHT22;2619;47.868;11.892;2022-08-21T01:59:22;15.30;99.90
5200;DHT22;2619;47.868;11.892;2022-08-21T02:01:48;15.20;99.90
5200;DHT22;2619;47.868;11.892;2022-08-21T02:04:14;15.20;99.90
5200;DHT22;2619;47.868;11.892;2022-08-21T02:06:40;15.20;99.90
5200;DHT22;2619;47.868;11.892;2022-08-21T02:09:08;15.20;99.90
5200;DHT22;2619;47.868;11.892;2022-08-21T02:11:35;15.30;99.90
5200;DHT22;2619;47.868;11.892;2022-08-21T02:14:01;15.30;99.90
5200;DHT22;2619;47.868;11.892;2022-08-21T02:16:27;15.20;99.90
5200;DHT22;2619;47.868;11.892;2022-08-21T02:18:52;15.10;99.90
5200;DHT22;2619;47.868;11.892;2022-08-21T02:21:18;15.10;99.90
5200;DHT22;2619;47.868;11.892;2022-08-21T02:23:44;15.10;99.90
5200;DHT22;2619;47.868;11.892;2022-08-21T02:26:10;15.20;99.90
5200;DHT22;2619;47.868;11.892;2022-08-21T02:28:37;15.20;99.90
5200;DHT22;2619;47.868;11.892;2022-08-21T02:31:05;15.20;99.90
5200;DHT22;2619;47.868;11.892;2022-08-21T02:33:30;15.10;99.90
5200;DHT22;2619;47.868;11.892;2022-08-21T02:35:57;15.10;99.90
5200;DHT22;2619;47.868;11.892;2022-08-21T02:38:27;15.10;99.90
5200;DHT22;2619;47.868;11.892;2022-08-21T02:40:54;15.10;99.90
5200;DHT22;2619;47.868;11.892;2022-08-21T02:43:21;15.30;99.90
5200;DHT22;2619;47.868;11.892;2022-08-21T02:45:48;15.30;99.90
5200;DHT22;2619;47.868;11.892;2022-08-21T02:48:17;15.30;99.90
5200;DHT22;2619;47.868;11.892;2022-08-21T02:50:56;15.30;99.90
5200;DHT22;2619;47.868;11.892;2022-08-21T02:53:22;15.10;99.90
5200;DHT22;2619;47.868;11.892;2022-08-21T02:55:49;15.10;99.90
5200;DHT22;2619;47.868;11.892;2022-08-21T02:58:17;15.10;99.90
5200;DHT22;2619;47.868;11.892;2022-08-21T03:00:43;15.10;99.90
5200;DHT22;2619;47.868;11.892;2022-08-21T03:03:09;15.10;99.90
5200;DHT22;2619;47.868;11.892;2022-08-21T03:05:36;15.10;99.90
5200;DHT22;2619;47.868;11.892;2022-08-21T03:08:06;15.10;99.90
5200;DHT22;2619;47.868;11.892;2022-08-21T03:10:35;15.10;99.90
5200;DHT22;2619;47.868;11.892;2022-08-21T03:13:00;15.10;99.90
5200;DHT22;2619;47.868;11.892;2022-08-21T03:15:27;15.00;99.90
5200;DHT22;2619;47.868;11.892;2022-08-21T03:17:53;15.10;99.90
5200;DHT22;2619;47.868;11.892;2022-08-21T03:20:22;15.10;99.90
5200;DHT22;2619;47.868;11.892;2022-08-21T03:22:49;15.00;99.90
5200;DHT22;2619;47.868;11.892;2022-08-21T03:25:15;15.00;99.90
5200;DHT22;2619;47.868;11.892;2022-08-21T03:27:41;15.00;99.90
5200;DHT22;2619;47.868;11.892;2022-08-21T03:30:07;15.10;99.90
5200;DHT22;2619;47.868;11.892;2022-08-21T03:32:33;15.10;99.90
5200;DHT22;2619;47.868;11.892;2022-08-21T03:34:59;15.00;99.90
5200;DHT22;2619;47.868;11.892;2022-08-21T03:37:26;15.00;99.90
5200;DHT22;2619;47.868;11.892;2022-08-21T03:39:51;15.00;99.90
5200;DHT22;2619;47.868;11.892;2022-08-21T03:42:17;14.90;99.90
5200;DHT22;2619;47.868;11.892;2022-08-21T03:44:43;14.80;99.90
5200;DHT22;2619;47.868;11.892;2022-08-21T03:47:09;14.80;99.90
5200;DHT22;2619;47.868;11.892;2022-08-21T03:49:35;14.90;99.90
5200;DHT22;2619;47.868;11.892;2022-08-21T03:52:01;14.90;99.90
5200;DHT22;2619;47.868;11.892;2022-08-21T03:54:27;14.90;99.90
5200;DHT22;2619;47.868;11.892;2022-08-21T03:56:52;14.80;99.90
5200;DHT22;2619;47.868;11.892;2022-08-21T03:59:18;14.80;99.90
5200;DHT22;2619;47.868;11.892;2022-08-21T04:01:55;14.80;99.90
5200;DHT22;2619;47.868;11.892;2022-08-21T04:04:21;14.70;99.90
5200;DHT22;2619;47.868;11.892;2022-08-21T04:06:46;14.80;99.90
5200;DHT22;2619;47.868;11.892;2022-08-21T04:09:12;14.80;99.90
5200;DHT22;2619;47.868;11.892;2022-08-21T04:11:38;14.80;99.90
5200;DHT22;2619;47.868;11.892;2022-08-21T04:14:03;14.80;99.90
5200;DHT22;2619;47.868;11.892;2022-08-21T04:16:30;14.90;99.90
5200;DHT22;2619;47.868;11.892;2022-08-21T04:18:56;14.90;99.90
5200;DHT22;2619;47.868;11.892;2022-08-21T04:21:22;14.90;99.90
5200;DHT22;2619;47.868;11.892;2022-08-21T04:23:48;14.80;99.90
5200;DHT22;2619;47.868;11.892;2022-08-21T04:26:14;14.90;99.90
5200;DHT22;2619;47.868;11.892;2022-08-21T04:28:41;14.80;99.90
5200;DHT22;2619;47.868;11.892;2022-08-21T04:31:07;14.80;99.90
5200;DHT22;2619;47.868;11.892;2022-08-21T04:33:33;14.80;99.90
5200;DHT22;2619;47.868;11.892;2022-08-21T04:35:59;14.80;99.90
5200;DHT22;2619;47.868;11.892;2022-08-21T04:38:24;14.80;99.90
5200;DHT22;2619;47.868;11.892;2022-08-21T04:40:52;14.80;99.90
5200;DHT22;2619;47.868;11.892;2022-08-21T04:43:18;14.80;99.90
5200;DHT22;2619;47.868;11.892;2022-08-21T04:45:46;14.90;99.90
5200;DHT22;2619;47.868;11.892;2022-08-21T04:48:14;14.90;99.90
5200;DHT22;2619;47.868;11.892;2022-08-21T04:50:45;14.80;99.90
5200;DHT22;2619;47.868;11.892;2022-08-21T04:53:20;14.90;99.90
5200;DHT22;2619;47.868;11.892;2022-08-21T04:55:47;14.90;99.90
5200;DHT22;2619;47.868;11.892;2022-08-21T04:58:15;14.90;99.90
5200;DHT22;2619;47.868;11.892;2022-08-21T05:00:43;14.90;99.90
5200;DHT22;2619;47.868;11.892;2022-08-21T05:03:10;14.90;99.90
5200;DHT22;2619;47.868;11.892;2022-08-21T05:05:37;14.90;99.90
5200;DHT22;2619;47.868;11.892;2022-08-21T05:08:03;15.00;99.90
5200;DHT22;2619;47.868;11.892;2022-08-21T05:10:30;15.10;99.90
5200;DHT22;2619;47.868;11.892;2022-08-21T05:12:57;15.30;99.90
5200;DHT22;2619;47.868;11.892;2022-08-21T05:15:23;15.40;99.90
5200;DHT22;2619;47.868;11.892;2022-08-21T05:17:49;15.40;99.90
5200;DHT22;2619;47.868;11.892;2022-08-21T05:20:16;15.40;99.90
5200;DHT22;2619;47.868;11.892;2022-08-21T05:22:42;15.40;99.90
5200;DHT22;2619;47.868;11.892;2022-08-21T05:25:09;15.60;99.90
5200;DHT22;2619;47.868;11.892;2022-08-21T05:27:35;16.20;99.90
5200;DHT22;2619;47.868;11.892;2022-08-21T05:30:01;17.20;99.90
5200;DHT22;2619;47.868;11.892;2022-08-21T05:32:27;18.10;99.90
5200;DHT22;2619;47.868;11.892;2022-08-21T05:34:54;18.50;99.90
5200;DHT22;2619;47.868;11.892;2022-08-21T05:37:20;18.40;99.90
5200;DHT22;2619;47.868;11.892;2022-08-21T05:39:45;18.10;99.90
5200;DHT22;2619;47.868;11.892;2022-08-21T05:42:11;17.70;99.90
5200;DHT22;2619;47.868;11.892;2022-08-21T05:44:37;17.30;99.90
5200;DHT22;2619;47.868;11.892;2022-08-21T05:47:11;17.20;99.90
5200;DHT22;2619;47.868;11.892;2022-08-21T05:49:37;17.80;99.90
5200;DHT22;2619;47.868;11.892;2022-08-21T05:52:03;19.00;99.90
5200;DHT22;2619;47.868;11.892;2022-08-21T05:54:30;19.90;99.90
5200;DHT22;2619;47.868;11.892;2022-08-21T05:56:56;21.20;99.90
5200;DHT22;2619;47.868;11.892;2022-08-21T05:59:22;22.30;99.90
5200;DHT22;2619;47.868;11.892;2022-08-21T06:01:48;22.80;99.90
5200;DHT22;2619;47.868;11.892;2022-08-21T06:04:14;23.60;99.90
5200;DHT22;2619;47.868;11.892;2022-08-21T06:06:40;24.50;99.90
5200;DHT22;2619;47.868;11.892;2022-08-21T06:09:06;24.50;99.90
5200;DHT22;2619;47.868;11.892;2022-08-21T06:11:32;24.40;99.90
5200;DHT22;2619;47.868;11.892;2022-08-21T06:13:58;24.80;99.90
5200;DHT22;2619;47.868;11.892;2022-08-21T06:16:25;24.50;99.90
5200;DHT22;2619;47.868;11.892;2022-08-21T06:18:51;25.20;99.90
5200;DHT22;2619;47.868;11.892;2022-08-21T06:21:17;25.50;99.90
5200;DHT22;2619;47.868;11.892;2022-08-21T06:23:43;25.60;99.90
5200;DHT22;2619;47.868;11.892;2022-08-21T06:26:11;25.00;99.90
5200;DHT22;2619;47.868;11.892;2022-08-21T06:28:37;25.60;99.90
5200;DHT22;2619;47.868;11.892;2022-08-21T06:31:22;26.20;99.90
5200;DHT22;2619;47.868;11.892;2022-08-21T06:33:48;25.30;99.90
5200;DHT22;2619;47.868;11.892;2022-08-21T06:36:14;25.10;99.90
5200;DHT22;2619;47.868;11.892;2022-08-21T06:38:40;24.10;99.90
5200;DHT22;2619;47.868;11.892;2022-08-21T06:41:06;23.00;99.90
5200;DHT22;2619;47.868;11.892;2022-08-21T06:43:32;22.20;99.90
5200;DHT22;2619;47.868;11.892;2022-08-21T06:45:58;22.60;99.90
5200;DHT22;2619;47.868;11.892;2022-08-21T06:48:23;23.60;99.90
5200;DHT22;2619;47.868;11.892;2022-08-21T06:50:49;25.00;99.90
5200;DHT22;2619;47.868;11.892;2022-08-21T06:53:17;24.80;99.90
5200;DHT22;2619;47.868;11.892;2022-08-21T06:55:43;24.40;99.90
5200;DHT22;2619;47.868;11.892;2022-08-21T06:58:09;23.80;99.90
5200;DHT22;2619;47.868;11.892;2022-08-21T07:00:39;23.80;99.90
5200;DHT22;2619;47.868;11.892;2022-08-21T07:03:04;23.80;99.90
5200;DHT22;2619;47.868;11.892;2022-08-21T07:05:30;24.60;99.90
5200;DHT22;2619;47.868;11.892;2022-08-21T07:07:57;24.50;99.90
5200;DHT22;2619;47.868;11.892;2022-08-21T07:10:23;23.60;99.90
5200;DHT22;2619;47.868;11.892;2022-08-21T07:12:50;23.60;99.90
5200;DHT22;2619;47.868;11.892;2022-08-21T07:15:16;23.80;99.90
5200;DHT22;2619;47.868;11.892;2022-08-21T07:17:42;23.70;99.90
5200;DHT22;2619;47.868;11.892;2022-08-21T07:20:08;24.20;99.90
5200;DHT22;2619;47.868;11.892;2022-08-21T07:22:35;24.00;99.90
5200;DHT22;2619;47.868;11.892;2022-08-21T07:25:04;23.60;99.90
5200;DHT22;2619;47.868;11.892;2022-08-21T07:27:30;23.10;99.90
5200;DHT22;2619;47.868;11.892;2022-08-21T07:29:56;22.70;99.90
5200;DHT22;2619;47.868;11.892;2022-08-21T07:32:22;22.40;99.90
5200;DHT22;2619;47.868;11.892;2022-08-21T07:34:48;22.30;99.90
5200;DHT22;2619;47.868;11.892;2022-08-21T07:37:13;22.20;99.90
5200;DHT22;2619;47.868;11.892;2022-08-21T07:39:39;22.80;99.90
5200;DHT22;2619;47.868;11.892;2022-08-21T07:42:05;23.60;99.90
5200;DHT22;2619;47.868;11.892;2022-08-21T07:44:30;24.20;99.90
5200;DHT22;2619;47.868;11.892;2022-08-21T07:46:56;25.30;99.90
5200;DHT22;2619;47.868;11.892;2022-08-21T07:49:21;25.90;99.90
5200;DHT22;2619;47.868;11.892;2022-08-21T07:51:47;26.00;99.90
5200;DHT22;2619;47.868;11.892;2022-08-21T07:54:12;26.30;99.90
5200;DHT22;2619;47.868;11.892;2022-08-21T07:56:38;26.10;99.90
5200;DHT22;2619;47.868;11.892;2022-08-21T07:59:03;25.90;99.90
5200;DHT22;2619;47.868;11.892;2022-08-21T08:01:29;25.90;99.90
5200;DHT22;2619;47.868;11.892;2022-08-21T08:03:55;26.10;99.90
5200;DHT22;2619;47.868;11.892;2022-08-21T08:06:21;26.50;99.90
5200;DHT22;2619;47.868;11.892;2022-08-21T08:08:48;26.30;99.90
5200;DHT22;2619;47.868;11.892;2022-08-21T08:11:14;26.00;99.90
5200;DHT22;2619;47.868;11.892;2022-08-21T08:13:46;25.90;99.90
5200;DHT22;2619;47.868;11.892;2022-08-21T08:16:12;25.40;99.90
5200;DHT22;2619;47.868;11.892;2022-08-21T08:18:38;24.90;99.90
5200;DHT22;2619;47.868;11.892;2022-08-21T08:21:04;24.40;99.90
5200;DHT22;2619;47.868;11.892;2022-08-21T08:23:30;24.30;99.90
5200;DHT22;2619;47.868;11.892;2022-08-21T08:25:57;24.30;99.90
5200;DHT22;2619;47.868;11.892;2022-08-21T08:28:23;24.40;99.90
5200;DHT22;2619;47.868;11.892;2022-08-21T08:30:49;24.20;99.90
5200;DHT22;2619;47.868;11.892;2022-08-21T08:33:15;24.10;99.90
5200;DHT22;2619;47.868;11.892;2022-08-21T08:35:46;24.10;99.90
5200;DHT22;2619;47.868;11.892;2022-08-21T08:38:13;24.20;99.90
5200;DHT22;2619;47.868;11.892;2022-08-21T08:43:34;24.60;99.90
5200;DHT22;2619;47.868;11.892;2022-08-21T08:46:03;24.30;99.90
5200;DHT22;2619;47.868;11.892;2022-08-21T08:48:46;24.00;99.90
5200;DHT22;2619;47.868;11.892;2022-08-21T08:51:25;23.90;99.90
5200;DHT22;2619;47.868;11.892;2022-08-21T08:53:59;23.80;99.90
5200;DHT22;2619;47.868;11.892;2022-08-21T08:56:31;23.80;99.90
5200;DHT22;2619;47.868;11.892;2022-08-21T08:59:07;24.00;99.90
5200;DHT22;2619;47.868;11.892;2022-08-21T09:01:33;24.10;99.90
5200;DHT22;2619;47.868;11.892;2022-08-21T09:03:59;24.40;99.90
5200;DHT22;2619;47.868;11.892;2022-08-21T09:06:33;24.50;99.90
5200;DHT22;2619;47.868;11.892;2022-08-21T09:09:04;24.40;99.90
5200;DHT22;2619;47.868;11.892;2022-08-21T09:14:25;24.20;99.90
5200;DHT22;2619;47.868;11.892;2022-08-21T09:17:09;24.20;99.90
5200;DHT22;2619;47.868;11.892;2022-08-21T09:20:01;24.40;99.90
5200;DHT22;2619;47.868;11.892;2022-08-21T09:23:00;24.70;99.90
5200;DHT22;2619;47.868;11.892;2022-08-21T09:25:32;24.60;99.90
5200;DHT22;2619;47.868;11.892;2022-08-21T09:27:58;24.70;99.90
5200;DHT22;2619;47.868;11.892;2022-08-21T09:30:28;24.90;99.90
5200;DHT22;2619;47.868;11.892;2022-08-21T09:32:54;24.80;99.90
5200;DHT22;2619;47.868;11.892;2022-08-21T09:35:21;24.90;99.90
5200;DHT22;2619;47.868;11.892;2022-08-21T09:37:56;25.10;99.90
5200;DHT22;2619;47.868;11.892;2022-08-21T09:40:28;25.10;98.90
5200;DHT22;2619;47.868;11.892;2022-08-21T09:43:22;24.90;99.90
5200;DHT22;2619;47.868;11.892;2022-08-21T09:46:11;25.00;99.40
5200;DHT22;2619;47.868;11.892;2022-08-21T09:48:46;24.90;99.30
5200;DHT22;2619;47.868;11.892;2022-08-21T09:51:16;24.90;99.90
5200;DHT22;2619;47.868;11.892;2022-08-21T09:53:46;25.20;99.90
5200;DHT22;2619;47.868;11.892;2022-08-21T09:56:34;25.60;99.60
5200;DHT22;2619;47.868;11.892;2022-08-21T09:59:29;25.90;99.30
5200;DHT22;2619;47.868;11.892;2022-08-21T10:01:58;26.00;97.50
5200;DHT22;2619;47.868;11.892;2022-08-21T10:04:32;26.00;97.10
5200;DHT22;2619;47.868;11.892;2022-08-21T10:07:13;26.10;97.30
5200;DHT22;2619;47.868;11.892;2022-08-21T10:09:40;26.40;98.40
5200;DHT22;2619;47.868;11.892;2022-08-21T10:14:48;26.40;98.40
5200;DHT22;2619;47.868;11.892;2022-08-21T10:20:06;26.40;97.30
5200;DHT22;2619;47.868;11.892;2022-08-21T10:25:16;26.00;99.00
5200;DHT22;2619;47.868;11.892;2022-08-21T10:36:13;27.20;97.40
5200;DHT22;2619;47.868;11.892;2022-08-21T10:39:07;27.70;97.10
5200;DHT22;2619;47.868;11.892;2022-08-21T10:42:31;27.80;94.10
5200;DHT22;2619;47.868;11.892;2022-08-21T10:47:57;28.00;92.80
5200;DHT22;2619;47.868;11.892;2022-08-21T10:53:36;28.90;92.60
5200;DHT22;2619;47.868;11.892;2022-08-21T10:56:34;28.60;91.00
5200;DHT22;2619;47.868;11.892;2022-08-21T11:04:34;27.00;92.00
5200;DHT22;2619;47.868;11.892;2022-08-21T11:07:11;26.20;92.80
5200;DHT22;2619;47.868;11.892;2022-08-21T11:09:43;25.70;94.30
5200;DHT22;2619;47.868;11.892;2022-08-21T11:12:28;25.40;95.60
5200;DHT22;2619;47.868;11.892;2022-08-21T11:20:51;24.90;97.70
5200;DHT22;2619;47.868;11.892;2022-08-21T11:23:31;25.00;97.70
5200;DHT22;2619;47.868;11.892;2022-08-21T11:26:04;25.30;95.70
5200;DHT22;2619;47.868;11.892;2022-08-21T11:28:52;25.40;95.90
5200;DHT22;2619;47.868;11.892;2022-08-21T11:39:27;26.40;91.40
5200;DHT22;2619;47.868;11.892;2022-08-21T11:44:56;27.10;92.20
5200;DHT22;2619;47.868;11.892;2022-08-21T11:50:16;26.80;90.90
5200;DHT22;2619;47.868;11.892;2022-08-21T11:53:03;26.70;88.30
5200;DHT22;2619;47.868;11.892;2022-08-21T11:56:01;26.90;90.60
5200;DHT22;2619;47.868;11.892;2022-08-21T12:01:17;28.00;88.50
5200;DHT22;2619;47.868;11.892;2022-08-21T12:03:54;28.00;85.60
5200;DHT22;2619;47.868;11.892;2022-08-21T12:06:33;28.00;85.70
5200;DHT22;2619;47.868;11.892;2022-08-21T12:09:04;28.10;85.80
5200;DHT22;2619;47.868;11.892;2022-08-21T12:11:30;28.30;89.50
5200;DHT22;2619;47.868;11.892;2022-08-21T12:14:12;28.30;89.40
5200;DHT22;2619;47.868;11.892;2022-08-21T12:16:41;28.20;90.80
5200;DHT22;2619;47.868;11.892;2022-08-21T12:19:12;28.30;94.10
5200;DHT22;2619;47.868;11.892;2022-08-21T12:22:13;27.90;91.60
5200;DHT22;2619;47.868;11.892;2022-08-21T12:27:21;27.40;92.60
5200;DHT22;2619;47.868;11.892;2022-08-21T12:30:03;27.30;90.20
5200;DHT22;2619;47.868;11.892;2022-08-21T12:32:45;26.90;91.90
5200;DHT22;2619;47.868;11.892;2022-08-21T12:35:21;26.90;93.80
5200;DHT22;2619;47.868;11.892;2022-08-21T12:37:56;26.80;93.60
5200;DHT22;2619;47.868;11.892;2022-08-21T12:40:29;27.00;94.00
5200;DHT22;2619;47.868;11.892;2022-08-21T12:42:59;27.10;92.50
5200;DHT22;2619;47.868;11.892;2022-08-21T12:45:38;26.90;91.60
5200;DHT22;2619;47.868;11.892;2022-08-21T12:48:35;26.70;93.30
5200;DHT22;2619;47.868;11.892;2022-08-21T12:51:16;26.40;92.80
5200;DHT22;2619;47.868;11.892;2022-08-21T12:53:54;26.00;92.40
5200;DHT22;2619;47.868;11.892;2022-08-21T12:56:24;25.70;94.10
5200;DHT22;2619;47.868;11.892;2022-08-21T12:58:53;25.50;93.90
5200;DHT22;2619;47.868;11.892;2022-08-21T13:01:23;25.40;93.90
5200;DHT22;2619;47.868;11.892;2022-08-21T13:03:52;25.20;93.50
5200;DHT22;2619;47.868;11.892;2022-08-21T13:06:20;25.30;95.20
5200;DHT22;2619;47.868;11.892;2022-08-21T13:08:48;25.60;93.50
5200;DHT22;2619;47.868;11.892;2022-08-21T13:11:18;25.80;93.80
5200;DHT22;2619;47.868;11.892;2022-08-21T13:13:51;25.90;93.80
5200;DHT22;2619;47.868;11.892;2022-08-21T13:16:27;26.20;93.40
5200;DHT22;2619;47.868;11.892;2022-08-21T13:18:57;26.30;91.10
5200;DHT22;2619;47.868;11.892;2022-08-21T13:21:30;26.30;90.70
5200;DHT22;2619;47.868;11.892;2022-08-21T13:24:19;26.50;92.00
5200;DHT22;2619;47.868;11.892;2022-08-21T13:26:45;26.70;91.90
5200;DHT22;2619;47.868;11.892;2022-08-21T13:29:14;26.90;92.00
5200;DHT22;2619;47.868;11.892;2022-08-21T13:31:46;26.90;92.20
5200;DHT22;2619;47.868;11.892;2022-08-21T13:34:14;26.80;91.40
5200;DHT22;2619;47.868;11.892;2022-08-21T13:36:42;26.80;93.40
5200;DHT22;2619;47.868;11.892;2022-08-21T13:39:10;26.70;92.50
5200;DHT22;2619;47.868;11.892;2022-08-21T13:41:39;26.20;91.80
5200;DHT22;2619;47.868;11.892;2022-08-21T13:44:32;25.80;91.00
5200;DHT22;2619;47.868;11.892;2022-08-21T13:47:02;25.70;93.70
5200;DHT22;2619;47.868;11.892;2022-08-21T13:49:38;25.80;93.00
5200;DHT22;2619;47.868;11.892;2022-08-21T13:52:14;25.80;92.50
5200;DHT22;2619;47.868;11.892;2022-08-21T13:54:42;25.70;93.00
5200;DHT22;2619;47.868;11.892;2022-08-21T13:57:26;25.60;93.10
5200;DHT22;2619;47.868;11.892;2022-08-21T13:59:52;25.70;92.80
5200;DHT22;2619;47.868;11.892;2022-08-21T14:02:23;25.80;92.10
5200;DHT22;2619;47.868;11.892;2022-08-21T14:04:59;25.80;91.80
5200;DHT22;2619;47.868;11.892;2022-08-21T14:07:34;25.90;91.90
5200;DHT22;2619;47.868;11.892;2022-08-21T14:10:06;25.80;91.20
5200;DHT22;2619;47.868;11.892;2022-08-21T14:12:42;25.80;91.20
5200;DHT22;2619;47.868;11.892;2022-08-21T14:15:09;25.80;92.10
5200;DHT22;2619;47.868;11.892;2022-08-21T14:17:38;25.70;92.40
5200;DHT22;2619;47.868;11.892;2022-08-21T14:20:11;25.50;91.90
5200;DHT22;2619;47.868;11.892;2022-08-21T14:22:45;25.20;92.10
5200;DHT22;2619;47.868;11.892;2022-08-21T14:27:43;25.00;93.80
5200;DHT22;2619;47.868;11.892;2022-08-21T14:30:25;25.00;93.20
5200;DHT22;2619;47.868;11.892;2022-08-21T14:32:52;25.10;93.20
5200;DHT22;2619;47.868;11.892;2022-08-21T14:35:19;25.10;93.10
5200;DHT22;2619;47.868;11.892;2022-08-21T14:37:47;25.20;93.10
5200;DHT22;2619;47.868;11.892;2022-08-21T14:40:12;25.20;93.20
5200;DHT22;2619;47.868;11.892;2022-08-21T14:42:40;25.30;94.30
5200;DHT22;2619;47.868;11.892;2022-08-21T14:45:19;25.30;93.30
5200;DHT22;2619;47.868;11.892;2022-08-21T14:47:45;25.30;93.70
5200;DHT22;2619;47.868;11.892;2022-08-21T14:50:12;25.30;93.20
5200;DHT22;2619;47.868;11.892;2022-08-21T14:52:38;25.30;92.40
5200;DHT22;2619;47.868;11.892;2022-08-21T14:55:06;25.30;92.60
5200;DHT22;2619;47.868;11.892;2022-08-21T14:57:32;25.40;92.90
5200;DHT22;2619;47.868;11.892;2022-08-21T14:59:58;25.40;92.80
5200;DHT22;2619;47.868;11.892;2022-08-21T15:02:25;25.50;92.60
5200;DHT22;2619;47.868;11.892;2022-08-21T15:04:51;25.30;92.20
5200;DHT22;2619;47.868;11.892;2022-08-21T15:07:16;25.30;92.80
5200;DHT22;2619;47.868;11.892;2022-08-21T15:09:42;25.30;92.10
5200;DHT22;2619;47.868;11.892;2022-08-21T15:12:08;25.20;92.20
5200;DHT22;2619;47.868;11.892;2022-08-21T15:14:36;25.20;91.60
5200;DHT22;2619;47.868;11.892;2022-08-21T15:17:05;25.10;92.70
5200;DHT22;2619;47.868;11.892;2022-08-21T15:19:31;25.10;91.90
5200;DHT22;2619;47.868;11.892;2022-08-21T15:21:56;25.20;92.60
5200;DHT22;2619;47.868;11.892;2022-08-21T15:24:22;25.30;92.20
5200;DHT22;2619;47.868;11.892;2022-08-21T15:26:49;25.40;92.90
5200;DHT22;2619;47.868;11.892;2022-08-21T15:29:15;25.50;93.60
5200;DHT22;2619;47.868;11.892;2022-08-21T15:31:51;25.50;92.60
5200;DHT22;2619;47.868;11.892;2022-08-21T15:34:18;25.60;90.50
5200;DHT22;2619;47.868;11.892;2022-08-21T15:36:43;25.60;92.10
5200;DHT22;2619;47.868;11.892;2022-08-21T15:39:09;25.60;92.30
5200;DHT22;2619;47.868;11.892;2022-08-21T15:41:34;25.30;92.40
5200;DHT22;2619;47.868;11.892;2022-08-21T15:44:00;25.10;93.20
5200;DHT22;2619;47.868;11.892;2022-08-21T15:46:26;25.10;93.70
5200;DHT22;2619;47.868;11.892;2022-08-21T15:48:51;24.90;92.60
5200;DHT22;2619;47.868;11.892;2022-08-21T15:51:18;24.80;93.50
5200;DHT22;2619;47.868;11.892;2022-08-21T15:53:45;24.70;92.60
5200;DHT22;2619;47.868;11.892;2022-08-21T15:56:21;24.40;93.10
5200;DHT22;2619;47.868;11.892;2022-08-21T15:58:53;24.30;93.90
5200;DHT22;2619;47.868;11.892;2022-08-21T16:01:22;24.20;93.60
5200;DHT22;2619;47.868;11.892;2022-08-21T16:03:49;24.10;93.60
5200;DHT22;2619;47.868;11.892;2022-08-21T16:06:15;24.00;95.30
5200;DHT22;2619;47.868;11.892;2022-08-21T16:08:41;23.90;94.20
5200;DHT22;2619;47.868;11.892;2022-08-21T16:11:07;23.90;95.00
5200;DHT22;2619;47.868;11.892;2022-08-21T16:13:39;24.00;96.30
5200;DHT22;2619;47.868;11.892;2022-08-21T16:16:09;24.00;95.50
5200;DHT22;2619;47.868;11.892;2022-08-21T16:18:34;23.90;95.70
5200;DHT22;2619;47.868;11.892;2022-08-21T16:21:00;23.80;96.10
5200;DHT22;2619;47.868;11.892;2022-08-21T16:23:25;23.80;95.80
5200;DHT22;2619;47.868;11.892;2022-08-21T16:25:51;23.80;95.60
5200;DHT22;2619;47.868;11.892;2022-08-21T16:28:18;23.70;95.60
5200;DHT22;2619;47.868;11.892;2022-08-21T16:30:48;23.70;95.40
5200;DHT22;2619;47.868;11.892;2022-08-21T16:35:49;23.60;95.20
5200;DHT22;2619;47.868;11.892;2022-08-21T16:38:15;23.60;95.40
5200;DHT22;2619;47.868;11.892;2022-08-21T16:40:41;23.50;96.30
5200;DHT22;2619;47.868;11.892;2022-08-21T16:43:07;23.50;96.90
5200;DHT22;2619;47.868;11.892;2022-08-21T16:45:33;23.50;97.00
5200;DHT22;2619;47.868;11.892;2022-08-21T16:47:59;23.40;99.90
5200;DHT22;2619;47.868;11.892;2022-08-21T16:50:25;23.30;99.90
5200;DHT22;2619;47.868;11.892;2022-08-21T16:52:51;23.30;98.20
5200;DHT22;2619;47.868;11.892;2022-08-21T16:55:17;23.30;99.30
5200;DHT22;2619;47.868;11.892;2022-08-21T16:57:42;23.20;97.90
5200;DHT22;2619;47.868;11.892;2022-08-21T17:00:09;23.10;98.50
5200;DHT22;2619;47.868;11.892;2022-08-21T17:02:45;22.90;99.60